createdAt,value
2024-01-06T00:00:38.431Z,91.32
2024-01-06T00:05:41.520Z,92.45
2024-01-06T00:10:43.116Z,94.24
2024-01-06T00:15:44.801Z,92.94
2024-01-06T00:20:47.685Z,92.29
2024-01-06T00:25:49.200Z,91.11
2024-01-06T00:30:50.802Z,90.25
2024-01-06T00:35:53.878Z,89.71
2024-01-06T00:40:55.369Z,88.42
2024-01-06T00:45:57.162Z,88.91
2024-01-06T00:51:00.167Z,89.88
2024-01-06T00:56:01.649Z,87.76
2024-01-06T01:01:03.893Z,86.06
2024-01-06T01:06:07.502Z,86.32
2024-01-06T01:11:09.079Z,86.84
2024-01-06T01:16:10.702Z,88.39
2024-01-06T01:21:13.684Z,88.03
2024-01-06T01:26:15.302Z,88.27
2024-01-06T01:31:17.009Z,88.53
2024-01-06T01:36:19.951Z,89.64
2024-01-06T01:41:21.541Z,88.19
2024-01-06T01:46:23.184Z,88.01
2024-01-06T01:51:29.850Z,88.41
2024-01-06T01:56:32.871Z,87.98
2024-01-06T02:01:35.212Z,87.60
2024-01-06T02:06:38.339Z,88.89
2024-01-06T02:11:39.904Z,87.88
2024-01-06T02:16:41.413Z,87.62
2024-01-06T02:21:45.367Z,87.68
2024-01-06T02:26:48.276Z,85.80
2024-01-06T02:31:49.843Z,85.86
2024-01-06T02:36:51.509Z,85.45
2024-01-06T02:41:54.438Z,87.29
2024-01-06T02:46:55.985Z,86.75
2024-01-06T02:51:57.550Z,87.02
2024-01-06T02:57:00.363Z,86.30
2024-01-06T03:02:03.141Z,86.00
2024-01-06T03:07:04.672Z,85.96
2024-01-06T03:12:08.042Z,84.94
2024-01-06T03:17:09.641Z,85.29
2024-01-06T03:22:11.193Z,85.43
2024-01-06T03:27:14.126Z,84.50
2024-01-06T03:32:15.712Z,84.20
2024-01-06T03:37:17.352Z,84.67
2024-01-06T03:42:20.356Z,83.89
2024-01-06T03:47:22.137Z,83.89
2024-01-06T03:52:23.756Z,83.45
2024-01-06T03:57:26.790Z,82.63
2024-01-06T04:02:28.351Z,82.37
2024-01-06T04:07:29.991Z,82.61
2024-01-06T04:12:32.872Z,81.83
2024-01-06T04:17:34.502Z,81.81
2024-01-06T04:22:36.018Z,82.47
2024-01-06T04:27:38.904Z,83.10
2024-01-06T04:32:40.588Z,83.05
2024-01-06T04:37:42.271Z,82.70
2024-01-06T04:42:45.280Z,82.39
2024-01-06T04:47:46.924Z,82.95
2024-01-06T04:52:49.015Z,82.12
2024-01-06T04:57:51.876Z,82.63
2024-01-06T05:02:53.439Z,81.89
2024-01-06T05:07:54.996Z,81.31
2024-01-06T05:12:57.897Z,81.59
2024-01-06T05:17:59.567Z,82.49
2024-01-06T05:23:01.261Z,81.78
2024-01-06T05:28:04.662Z,82.28
2024-01-06T05:33:06.336Z,82.18
2024-01-06T05:38:07.907Z,82.14
2024-01-06T05:43:10.875Z,82.19
2024-01-06T05:48:12.763Z,82.15
2024-01-06T05:53:14.439Z,82.89
2024-01-06T05:58:17.442Z,83.46
2024-01-06T06:03:19.088Z,82.71
2024-01-06T06:08:20.715Z,82.58
2024-01-06T06:13:23.607Z,82.35
2024-01-06T06:18:25.289Z,81.00
2024-01-06T06:23:27.215Z,81.59
2024-01-06T06:28:30.041Z,81.60
2024-01-06T06:33:31.959Z,82.05
2024-01-06T06:38:33.670Z,83.80
2024-01-06T06:43:36.488Z,83.93
2024-01-06T06:48:38.025Z,83.22
2024-01-06T06:53:39.545Z,83.56
2024-01-06T06:58:42.470Z,83.07
2024-01-06T07:03:44.114Z,82.74
2024-01-06T07:08:45.778Z,83.10
2024-01-06T07:13:48.899Z,83.08
2024-01-06T07:18:50.600Z,84.18
2024-01-06T07:23:52.264Z,83.50
2024-01-06T07:28:55.583Z,84.49
2024-01-06T07:33:57.223Z,84.96
2024-01-06T07:38:58.933Z,84.81
2024-01-06T07:44:01.771Z,84.92
2024-01-06T07:49:03.423Z,83.71
2024-01-06T07:54:05.191Z,83.70
2024-01-06T07:59:08.027Z,83.61
2024-01-06T08:04:09.723Z,83.46
2024-01-06T08:09:11.351Z,83.26
2024-01-06T08:14:14.289Z,82.29
2024-01-06T08:19:15.976Z,82.13
2024-01-06T08:24:17.618Z,83.12
2024-01-06T08:29:20.643Z,82.75
2024-01-06T08:34:22.298Z,82.61
2024-01-06T08:39:23.986Z,83.35
2024-01-06T08:44:26.941Z,82.56
2024-01-06T08:49:28.617Z,82.95
2024-01-06T08:54:30.386Z,83.65
2024-01-06T08:59:33.267Z,82.36
2024-01-06T09:04:34.914Z,82.80
2024-01-06T09:09:36.622Z,82.48
2024-01-06T09:14:39.637Z,83.88
2024-01-06T09:19:41.317Z,84.36
2024-01-06T09:24:43.019Z,85.34
2024-01-06T09:29:46.029Z,85.43
2024-01-06T09:34:47.797Z,85.24
2024-01-06T09:39:49.495Z,84.14
2024-01-06T09:44:52.624Z,85.36
2024-01-06T09:49:55.632Z,83.05
2024-01-06T09:54:58.270Z,81.43
2024-01-06T10:00:01.724Z,78.45
2024-01-06T10:05:03.873Z,79.27
2024-01-06T10:10:08.623Z,79.65
2024-01-06T10:15:12.903Z,82.32
2024-01-06T10:20:14.736Z,79.86
2024-01-06T10:25:16.298Z,78.22
2024-01-06T10:30:19.311Z,77.11
2024-01-06T10:35:21.105Z,77.07
2024-01-06T10:40:22.623Z,77.05
2024-01-06T10:45:26.237Z,77.15
2024-01-06T10:50:29.682Z,76.50
2024-01-06T10:55:32.619Z,76.67
2024-01-06T11:00:35.663Z,75.41
2024-01-06T11:05:38.017Z,77.43
2024-01-06T11:10:42.110Z,76.56
2024-01-06T11:15:46.352Z,76.53
2024-01-06T11:21:19.272Z,74.78
2024-01-06T11:26:21.008Z,75.42
2024-01-06T11:31:23.993Z,78.32
2024-01-06T11:36:28.591Z,77.35
2024-01-06T11:41:49.730Z,77.48
2024-01-06T11:46:54.502Z,75.60
2024-01-06T11:51:57.119Z,76.62
2024-01-06T11:56:58.796Z,75.59
2024-01-06T12:02:01.736Z,74.56
2024-01-06T12:07:06.901Z,75.24
2024-01-06T12:12:09.101Z,74.97
2024-01-06T12:17:12.898Z,76.17
2024-01-06T12:22:15.787Z,75.96
2024-01-06T12:27:18.256Z,77.57
2024-01-06T12:32:21.406Z,75.10
2024-01-06T12:37:23.650Z,77.60
2024-01-06T12:42:25.228Z,76.73
2024-01-06T12:47:28.343Z,78.61
2024-01-06T12:52:29.958Z,77.59
2024-01-06T12:57:31.870Z,78.21
2024-01-06T13:02:34.741Z,78.25
2024-01-06T13:07:36.627Z,78.90
2024-01-06T13:12:38.345Z,79.39
2024-01-06T13:17:41.371Z,77.96
2024-01-06T13:22:42.999Z,80.08
2024-01-06T13:27:44.568Z,79.54
2024-01-06T13:32:47.573Z,77.22
2024-01-06T13:37:49.143Z,79.51
2024-01-06T13:42:51.435Z,78.70
2024-01-06T13:47:54.461Z,76.66
2024-01-06T13:52:56.110Z,77.11
2024-01-06T13:57:57.735Z,78.77
2024-01-06T14:03:00.782Z,79.33
2024-01-06T14:08:02.754Z,81.15
2024-01-06T14:13:04.702Z,79.36
2024-01-06T14:18:08.006Z,80.38
2024-01-06T14:23:09.637Z,80.55
2024-01-06T14:28:11.214Z,80.42
2024-01-06T14:33:14.146Z,81.11
2024-01-06T14:38:15.782Z,81.67
2024-01-06T14:43:17.349Z,81.83
2024-01-06T14:48:20.339Z,81.68
2024-01-06T14:53:21.906Z,83.33
2024-01-06T14:58:23.588Z,84.73
2024-01-06T15:03:26.521Z,86.15
2024-01-06T15:08:28.085Z,85.51
2024-01-06T15:13:29.663Z,85.69
2024-01-06T15:18:32.960Z,87.52
2024-01-06T15:23:34.528Z,86.83
2024-01-06T15:28:36.113Z,88.23
2024-01-06T15:33:39.153Z,89.03
2024-01-06T15:38:40.904Z,89.11
2024-01-06T15:43:42.457Z,88.93
2024-01-06T15:48:45.629Z,89.57
2024-01-06T15:53:47.242Z,89.08
2024-01-06T15:58:49.010Z,89.55
2024-01-06T16:03:52.129Z,90.32
2024-01-06T16:08:53.648Z,91.38
2024-01-06T16:13:55.228Z,91.31
2024-01-06T16:18:58.178Z,90.77
2024-01-06T16:23:59.819Z,90.97
2024-01-06T16:29:01.425Z,91.19
2024-01-06T16:34:04.356Z,91.12
2024-01-06T16:39:05.999Z,91.64
2024-01-06T16:44:07.571Z,91.58
2024-01-06T16:49:10.527Z,92.18
2024-01-06T16:54:12.086Z,91.19
2024-01-06T16:59:13.770Z,90.20
2024-01-06T17:04:16.918Z,90.35
2024-01-06T17:09:18.594Z,91.63
2024-01-06T17:14:20.165Z,92.61
2024-01-06T17:19:23.114Z,93.20
2024-01-06T17:24:24.938Z,94.21
2024-01-06T17:29:26.582Z,94.89
2024-01-06T17:34:30.256Z,95.19
2024-01-06T17:39:31.925Z,94.58
2024-01-06T17:44:33.451Z,94.84
2024-01-06T17:49:36.460Z,94.20
2024-01-06T17:54:38.088Z,93.88
2024-01-06T17:59:39.632Z,94.44
2024-01-06T18:04:42.659Z,94.50
2024-01-06T18:09:44.462Z,93.74
2024-01-06T18:14:46.088Z,94.53
2024-01-06T18:19:49.007Z,94.33
2024-01-06T18:24:50.566Z,94.71
2024-01-06T18:29:52.135Z,95.22
2024-01-06T18:34:55.113Z,95.81
2024-01-06T18:39:56.749Z,94.84
2024-01-06T18:45:04.980Z,95.70
2024-01-06T18:50:09.156Z,96.03
2024-01-06T18:55:10.870Z,96.09
2024-01-06T19:00:14.002Z,95.88
2024-01-06T19:05:17.062Z,96.16
2024-01-06T19:10:18.616Z,95.84
2024-01-06T19:15:20.509Z,96.06
2024-01-06T19:20:23.596Z,95.69
2024-01-06T19:25:25.205Z,96.10
2024-01-06T19:30:26.892Z,95.79
2024-01-06T19:35:29.865Z,96.16
2024-01-06T19:40:31.500Z,96.40
2024-01-06T19:45:33.171Z,96.57
2024-01-06T19:50:36.200Z,96.55
2024-01-06T19:55:37.804Z,96.71
2024-01-06T20:00:39.558Z,96.84
2024-01-06T20:05:42.590Z,97.14
2024-01-06T20:10:44.175Z,97.04
2024-01-06T20:15:45.829Z,97.35
2024-01-06T20:20:48.776Z,97.82
2024-01-06T20:25:50.608Z,98.15
2024-01-06T20:30:52.462Z,98.10
2024-01-06T20:35:55.535Z,98.16
2024-01-06T20:40:57.196Z,98.36
2024-01-06T20:45:58.774Z,97.95
2024-01-06T20:51:01.750Z,98.11
2024-01-06T20:56:03.525Z,98.58
2024-01-06T21:01:05.141Z,98.54
2024-01-06T21:06:08.341Z,98.71
2024-01-06T21:11:09.961Z,98.61
2024-01-06T21:16:11.594Z,98.11
2024-01-06T21:21:15.370Z,98.25
2024-01-06T21:26:16.951Z,98.12
2024-01-06T21:31:18.677Z,98.33
2024-01-06T21:36:21.887Z,98.26
2024-01-06T21:41:23.720Z,98.32
2024-01-06T21:46:25.371Z,98.41
2024-01-06T21:51:28.268Z,98.17
2024-01-06T21:56:29.811Z,98.17
2024-01-06T22:01:31.523Z,98.21
2024-01-06T22:06:34.543Z,98.07
2024-01-06T22:11:37.526Z,97.86
2024-01-06T22:16:39.118Z,97.36
2024-01-06T22:21:44.775Z,97.47
2024-01-06T22:26:48.043Z,97.15
2024-01-06T22:31:49.900Z,96.20
2024-01-06T22:36:53.011Z,96.82
2024-01-06T22:41:54.610Z,96.87
2024-01-06T22:46:56.242Z,97.33
2024-01-06T22:51:59.435Z,96.64
2024-01-06T22:57:01.041Z,96.53
2024-01-06T23:02:02.672Z,97.09
2024-01-06T23:07:06.774Z,97.40
2024-01-06T23:12:08.428Z,97.47
2024-01-06T23:17:10.050Z,97.28
2024-01-06T23:22:13.009Z,97.47
2024-01-06T23:27:14.691Z,97.99
2024-01-06T23:32:16.356Z,97.92
2024-01-06T23:37:19.260Z,98.16
2024-01-06T23:42:20.862Z,98.57
2024-01-06T23:47:22.636Z,99.09
2024-01-06T23:52:26.846Z,99.06
2024-01-06T23:57:28.520Z,99.25
